Time;durP1;ratioP1;P1;durP2;ratioP2;P2;SDS_P1;SDS_P2;PMS_P1;PMS_P2;Temp;Humidity;BMP_temperature;BMP_pressure;BME280_temperature;BME280_humidity;BME280_pressure;Samples;Min_cycle;Max_cycle;Signal;HPM_P1;HPM_P2
2024/01/09 00:02:19;;;;;;;51.83;34.40;;;-1.20;99.90;;;;;;4995229;28;20026;-75
2024/01/09 00:04:45;;;;;;;53.85;33.08;;;-1.10;99.90;;;;;;4995658;28;20023;-75
2024/01/09 00:07:11;;;;;;;54.97;34.85;;;-1.20;99.90;;;;;;5009565;28;20129;-74
2024/01/09 00:09:37;;;;;;;51.70;31.88;;;-1.20;99.90;;;;;;4993908;28;20125;-74
2024/01/09 00:12:04;;;;;;;53.13;32.72;;;-1.20;99.90;;;;;;4995108;28;20061;-77
2024/01/09 00:14:30;;;;;;;52.17;31.15;;;-1.20;99.90;;;;;;4995371;28;20080;-74
2024/01/09 00:16:55;;;;;;;49.60;31.23;;;-1.20;99.90;;;;;;4995321;28;20034;-75
2024/01/09 00:19:21;;;;;;;50.03;31.40;;;-1.20;99.90;;;;;;4995181;28;20014;-75
2024/01/09 00:21:49;;;;;;;47.25;29.27;;;-1.20;99.90;;;;;;4981517;28;20026;-76
2024/01/09 00:24:15;;;;;;;54.30;33.17;;;-1.20;99.90;;;;;;4995191;28;20018;-75
2024/01/09 00:26:42;;;;;;;48.50;30.77;;;-1.20;99.90;;;;;;4994686;28;20027;-75
2024/01/09 00:29:08;;;;;;;47.92;29.77;;;-1.20;99.90;;;;;;5009791;28;20057;-75
2024/01/09 00:31:34;;;;;;;48.00;30.33;;;-1.20;99.90;;;;;;4993689;28;20482;-75
2024/01/09 00:34:00;;;;;;;49.97;31.13;;;-1.20;99.90;;;;;;4993668;28;20034;-75
2024/01/09 00:36:26;;;;;;;48.03;30.27;;;-1.20;99.90;;;;;;4993896;28;20402;-75
2024/01/09 00:38:52;;;;;;;48.53;29.10;;;-1.20;99.90;;;;;;4993014;28;20014;-75
2024/01/09 00:41:18;;;;;;;48.38;29.98;;;-1.20;99.90;;;;;;4993498;28;20483;-76
2024/01/09 00:43:44;;;;;;;52.97;32.15;;;-1.20;99.90;;;;;;4991493;28;20541;-76
2024/01/09 00:46:10;;;;;;;49.40;31.08;;;-1.20;99.90;;;;;;4993212;28;20033;-75
2024/01/09 00:48:36;;;;;;;50.85;31.25;;;-1.20;99.90;;;;;;4993126;28;20037;-76
2024/01/09 00:51:02;;;;;;;46.50;32.00;;;-1.20;99.90;;;;;;4993232;28;20114;-75
2024/01/09 00:53:28;;;;;;;53.42;31.95;;;-1.20;99.90;;;;;;5007836;28;20037;-75
2024/01/09 00:55:54;;;;;;;53.22;31.83;;;-1.20;99.90;;;;;;4992863;28;20033;-76
2024/01/09 00:58:20;;;;;;;50.83;32.47;;;-1.20;99.90;;;;;;4993063;28;20105;-75
2024/01/09 01:00:46;;;;;;;54.55;31.35;;;-1.20;99.90;;;;;;4992538;28;20525;-76
2024/01/09 01:03:12;;;;;;;52.47;33.20;;;-1.20;99.90;;;;;;4993003;28;20097;-76
2024/01/09 01:05:38;;;;;;;57.40;32.50;;;-1.20;99.90;;;;;;5004917;28;20149;-75
2024/01/09 01:08:04;;;;;;;53.15;31.92;;;-1.20;99.90;;;;;;4992771;28;20069;-75
2024/01/09 01:10:30;;;;;;;52.55;33.22;;;-1.20;99.90;;;;;;4992713;28;20096;-75
2024/01/09 01:12:56;;;;;;;55.65;34.55;;;-1.20;99.90;;;;;;4992591;28;20425;-75
2024/01/09 01:15:23;;;;;;;50.30;32.88;;;-1.20;99.90;;;;;;4988991;28;20470;-75
2024/01/09 01:17:49;;;;;;;55.15;32.95;;;-1.20;99.90;;;;;;4992557;28;20027;-75
2024/01/09 01:20:15;;;;;;;52.53;31.88;;;-1.20;99.90;;;;;;4992435;28;20018;-76
2024/01/09 01:22:41;;;;;;;50.60;31.58;;;-1.20;99.90;;;;;;4991453;28;20041;-75
2024/01/09 01:25:09;;;;;;;52.67;32.88;;;-1.10;99.90;;;;;;4992517;28;20030;-76
2024/01/09 01:27:34;;;;;;;55.75;33.25;;;-1.10;99.90;;;;;;4992119;28;20363;-76
2024/01/09 01:30:00;;;;;;;47.88;31.85;;;-1.10;99.90;;;;;;4988081;28;20061;-75
2024/01/09 01:32:26;;;;;;;50.60;31.58;;;-1.20;99.90;;;;;;4992186;28;20030;-76
2024/01/09 01:34:52;;;;;;;55.22;33.38;;;-1.10;99.90;;;;;;4991538;28;20026;-75
2024/01/09 01:37:18;;;;;;;70.82;41.35;;;-1.10;99.90;;;;;;4992125;28;20045;-76
2024/01/09 01:39:44;;;;;;;70.38;44.10;;;-1.20;99.90;;;;;;4989406;28;20034;-76
2024/01/09 01:42:10;;;;;;;79.55;45.33;;;-1.20;99.90;;;;;;4991717;28;20030;-75
2024/01/09 01:44:36;;;;;;;63.38;41.35;;;-1.20;99.90;;;;;;4992298;28;20080;-76
2024/01/09 01:47:04;;;;;;;58.92;36.38;;;-1.20;99.90;;;;;;4991612;28;20045;-75
2024/01/09 01:49:30;;;;;;;56.55;35.00;;;-1.20;99.90;;;;;;5007074;28;20046;-76
2024/01/09 01:51:57;;;;;;;54.50;33.63;;;-1.10;99.90;;;;;;4992155;28;20037;-75
2024/01/09 01:54:23;;;;;;;55.17;32.88;;;-1.10;99.90;;;;;;4991644;28;20037;-74
2024/01/09 01:56:50;;;;;;;49.95;32.78;;;-1.10;99.90;;;;;;4991909;28;20030;-75
2024/01/09 01:59:19;;;;;;;48.10;29.50;;;-1.10;99.90;;;;;;4987795;28;20029;-75
2024/01/09 02:01:46;;;;;;;48.13;29.95;;;-1.10;99.90;;;;;;4990585;28;20042;-75
2024/01/09 02:04:12;;;;;;;45.03;29.88;;;-1.10;99.90;;;;;;4991535;28;20026;-75
2024/01/09 02:06:40;;;;;;;51.70;31.35;;;-1.10;99.90;;;;;;4991779;28;20363;-75
2024/01/09 02:09:05;;;;;;;51.63;30.58;;;-1.10;99.90;;;;;;4990754;28;20039;-77
2024/01/09 02:11:31;;;;;;;49.65;30.40;;;-1.10;99.90;;;;;;4991440;28;20018;-75
2024/01/09 02:13:58;;;;;;;45.58;29.50;;;-1.10;99.90;;;;;;4991674;28;20029;-75
2024/01/09 02:16:24;;;;;;;51.97;31.98;;;-1.10;99.90;;;;;;4991569;28;20030;-76
2024/01/09 02:18:50;;;;;;;52.22;30.50;;;-1.10;99.90;;;;;;4991568;28;20382;-75
2024/01/09 02:21:16;;;;;;;46.60;30.42;;;-1.10;99.90;;;;;;4991357;28;20023;-75
2024/01/09 02:23:43;;;;;;;44.90;28.42;;;-1.10;99.90;;;;;;5006486;28;20026;-76
2024/01/09 02:26:10;;;;;;;51.42;30.33;;;-1.10;99.90;;;;;;5002609;28;20109;-75
2024/01/09 02:28:51;;;;;;;50.25;28.92;;;-1.10;99.90;;;;;;4988849;28;20039;-76
2024/01/09 02:31:17;;;;;;;46.63;28.63;;;-1.10;99.90;;;;;;4990184;28;20065;-75
2024/01/09 02:33:45;;;;;;;49.50;31.17;;;-1.20;99.90;;;;;;4991107;28;20026;-75
2024/01/09 02:36:11;;;;;;;48.80;31.00;;;-1.20;99.90;;;;;;4989968;28;20089;-77
2024/01/09 02:38:38;;;;;;;50.05;29.15;;;-1.10;99.90;;;;;;4991192;28;20018;-76
2024/01/09 02:41:05;;;;;;;47.78;29.30;;;-1.20;99.90;;;;;;4991135;28;20108;-74
2024/01/09 02:43:31;;;;;;;47.28;28.90;;;-1.20;99.90;;;;;;4989915;28;20022;-75
2024/01/09 02:45:57;;;;;;;49.28;28.75;;;-1.20;99.90;;;;;;4991062;28;20026;-75
2024/01/09 02:48:22;;;;;;;51.97;31.05;;;-1.20;99.90;;;;;;4991116;28;20093;-74
2024/01/09 02:50:48;;;;;;;51.17;30.23;;;-1.20;99.90;;;;;;4990933;28;20122;-76
2024/01/09 02:53:14;;;;;;;45.22;28.67;;;-1.30;99.90;;;;;;4990855;28;20023;-76
2024/01/09 02:55:40;;;;;;;50.03;29.52;;;-1.20;99.90;;;;;;4989848;28;20027;-76
2024/01/09 02:58:06;;;;;;;46.58;28.65;;;-1.20;99.90;;;;;;4991229;28;20014;-76
2024/01/09 03:00:32;;;;;;;45.40;29.70;;;-1.30;99.90;;;;;;4990819;28;20060;-75
2024/01/09 03:02:58;;;;;;;47.47;28.33;;;-1.20;99.90;;;;;;4991270;28;20030;-76
2024/01/09 03:05:24;;;;;;;45.20;28.10;;;-1.30;99.90;;;;;;4989295;28;20030;-76
2024/01/09 03:07:50;;;;;;;47.65;29.23;;;-1.30;99.90;;;;;;4989935;28;20157;-76
2024/01/09 03:10:16;;;;;;;44.42;27.58;;;-1.30;99.90;;;;;;4989904;28;20113;-76
2024/01/09 03:12:42;;;;;;;48.90;29.08;;;-1.30;99.90;;;;;;4991122;28;20026;-76
2024/01/09 03:15:09;;;;;;;49.13;28.80;;;-1.30;99.90;;;;;;4990697;28;20141;-76
2024/01/09 03:17:35;;;;;;;46.40;28.95;;;-1.30;99.90;;;;;;4990945;28;20027;-75
2024/01/09 03:20:02;;;;;;;47.72;28.33;;;-1.30;99.90;;;;;;4990851;28;20521;-76
2024/01/09 03:22:28;;;;;;;48.92;29.63;;;-1.40;99.90;;;;;;4990849;28;20035;-75
2024/01/09 03:24:53;;;;;;;42.28;27.85;;;-1.40;99.90;;;;;;4990744;28;20037;-75
2024/01/09 03:27:19;;;;;;;47.75;29.55;;;-1.40;99.90;;;;;;4990683;28;20018;-75
2024/01/09 03:29:45;;;;;;;47.47;31.17;;;-1.30;99.90;;;;;;4990540;28;20394;-76
2024/01/09 03:32:11;;;;;;;49.65;30.88;;;-1.40;99.90;;;;;;4990432;28;20483;-76
2024/01/09 03:34:37;;;;;;;46.15;28.65;;;-1.40;99.90;;;;;;4990709;28;20137;-75
2024/01/09 03:37:03;;;;;;;45.00;28.63;;;-1.40;99.90;;;;;;4990837;28;20416;-74
2024/01/09 03:39:29;;;;;;;51.53;30.08;;;-1.30;99.90;;;;;;4990754;28;20034;-75
2024/01/09 03:41:55;;;;;;;45.15;28.35;;;-1.30;99.90;;;;;;5006328;23;20045;-75
2024/01/09 03:44:20;;;;;;;49.08;30.83;;;-1.40;99.90;;;;;;5027234;28;20033;-75
2024/01/09 03:46:46;;;;;;;47.83;28.70;;;-1.30;99.90;;;;;;5009160;28;20092;-76
2024/01/09 03:49:12;;;;;;;49.58;28.15;;;-1.30;99.90;;;;;;5015033;28;20127;-75
2024/01/09 03:51:38;;;;;;;52.22;31.48;;;-1.40;99.90;;;;;;5021151;28;20469;-75
2024/01/09 03:54:04;;;;;;;42.58;27.48;;;-1.30;99.90;;;;;;5029350;28;20025;-76
2024/01/09 03:56:30;;;;;;;46.53;28.83;;;-1.30;99.90;;;;;;5023362;28;20026;-75
2024/01/09 03:58:56;;;;;;;42.38;27.20;;;-1.30;99.90;;;;;;5021137;28;20120;-76
2024/01/09 04:01:22;;;;;;;47.67;28.88;;;-1.30;99.90;;;;;;5020335;28;20026;-75
2024/01/09 04:03:48;;;;;;;44.92;28.15;;;-1.30;99.90;;;;;;5017789;28;20492;-75
2024/01/09 04:06:14;;;;;;;47.10;27.00;;;-1.20;99.90;;;;;;5013430;28;20033;-76
2024/01/09 04:08:39;;;;;;;41.17;26.77;;;-1.30;99.90;;;;;;5016386;28;20072;-76
2024/01/09 04:11:06;;;;;;;42.25;27.45;;;-1.30;99.90;;;;;;5032779;28;20052;-76
2024/01/09 04:13:32;;;;;;;41.40;27.20;;;-1.30;99.90;;;;;;5021406;28;20021;-75
2024/01/09 04:15:58;;;;;;;42.15;25.58;;;-1.30;99.90;;;;;;5015948;28;20026;-75
2024/01/09 04:18:24;;;;;;;46.85;27.75;;;-1.40;99.90;;;;;;5015167;28;20132;-75
2024/01/09 04:20:50;;;;;;;45.83;27.23;;;-1.40;99.90;;;;;;5013249;28;20033;-75
2024/01/09 04:23:15;;;;;;;46.58;27.92;;;-1.30;99.90;;;;;;5034333;28;20046;-75
2024/01/09 04:25:41;;;;;;;45.65;28.38;;;-1.30;99.90;;;;;;5016001;28;20022;-75
2024/01/09 04:28:07;;;;;;;44.10;29.20;;;-1.40;99.90;;;;;;5017280;28;20068;-74
2024/01/09 04:30:33;;;;;;;45.08;27.02;;;-1.30;99.90;;;;;;5013868;28;20834;-75
2024/01/09 04:32:59;;;;;;;50.25;28.45;;;-1.30;99.90;;;;;;5017419;28;20071;-74
2024/01/09 04:35:25;;;;;;;51.90;32.70;;;-1.30;99.90;;;;;;5017266;28;20030;-75
2024/01/09 04:37:51;;;;;;;51.72;33.40;;;-1.20;99.90;;;;;;5017616;28;20036;-74
2024/01/09 04:40:16;;;;;;;51.30;32.50;;;-1.20;99.90;;;;;;5014070;28;20022;-75
2024/01/09 04:42:42;;;;;;;52.45;33.53;;;-1.30;99.90;;;;;;5014213;28;20046;-75
2024/01/09 04:45:09;;;;;;;50.13;30.35;;;-1.30;99.90;;;;;;5012972;28;20026;-75
2024/01/09 04:47:35;;;;;;;54.83;33.70;;;-1.20;99.90;;;;;;5019894;28;20381;-76
2024/01/09 04:50:00;;;;;;;46.00;28.80;;;-1.20;99.90;;;;;;5021827;28;20036;-75
2024/01/09 04:52:26;;;;;;;44.65;30.98;;;-1.20;99.90;;;;;;5020171;28;20508;-76
2024/01/09 04:54:52;;;;;;;43.25;28.13;;;-1.10;99.90;;;;;;5017587;28;20105;-74
2024/01/09 04:57:18;;;;;;;44.47;27.88;;;-1.20;99.90;;;;;;5015784;28;20354;-75
2024/01/09 04:59:44;;;;;;;40.90;25.67;;;-1.20;99.90;;;;;;5014806;28;20032;-77
2024/01/09 05:02:10;;;;;;;46.13;28.35;;;-1.20;99.90;;;;;;5016841;28;20057;-74
2024/01/09 05:04:36;;;;;;;45.83;30.77;;;-1.10;99.90;;;;;;5014031;28;20061;-77
2024/01/09 05:07:02;;;;;;;54.35;34.33;;;-1.20;99.90;;;;;;5013429;28;20034;-74
2024/01/09 05:09:28;;;;;;;50.30;33.30;;;-1.10;99.90;;;;;;5016177;28;20096;-75
2024/01/09 05:11:53;;;;;;;54.67;34.22;;;-1.20;99.90;;;;;;5018050;28;20026;-75
2024/01/09 05:14:19;;;;;;;35.72;20.92;;;-1.10;99.90;;;;;;5029428;28;20053;-75
2024/01/09 05:16:45;;;;;;;37.00;22.70;;;-1.10;99.90;;;;;;5016496;28;20061;-75
2024/01/09 05:19:11;;;;;;;33.60;21.00;;;-1.20;99.90;;;;;;5011759;28;20128;-77
2024/01/09 05:21:37;;;;;;;33.47;20.75;;;-1.20;99.90;;;;;;5019415;28;20104;-76
2024/01/09 05:24:03;;;;;;;36.40;20.05;;;-1.20;99.90;;;;;;5014945;28;20037;-75
2024/01/09 05:26:29;;;;;;;40.08;24.83;;;-1.20;99.90;;;;;;5016477;28;20054;-75
2024/01/09 05:28:55;;;;;;;37.80;25.92;;;-1.20;99.90;;;;;;5028820;28;20740;-76
2024/01/09 05:31:20;;;;;;;39.20;22.55;;;-1.10;99.90;;;;;;5016868;28;20469;-76
2024/01/09 05:33:47;;;;;;;34.45;21.48;;;-1.20;99.90;;;;;;5019135;28;20022;-76
2024/01/09 05:36:18;;;;;;;32.55;19.70;;;-1.20;99.90;;;;;;5018391;28;20018;-77
2024/01/09 05:38:44;;;;;;;30.92;18.80;;;-1.20;99.90;;;;;;5014825;28;20113;-77
2024/01/09 05:41:21;;;;;;;30.55;18.15;;;-1.20;99.90;;;;;;5014528;28;20026;-76
2024/01/09 05:43:49;;;;;;;31.90;19.95;;;-1.20;99.90;;;;;;5012631;28;20057;-76
2024/01/09 05:46:15;;;;;;;36.65;19.60;;;-1.30;99.90;;;;;;5019490;28;20583;-76
2024/01/09 05:48:42;;;;;;;36.45;21.45;;;-1.30;99.90;;;;;;5031394;28;20471;-77
2024/01/09 05:51:09;;;;;;;32.15;19.08;;;-1.30;99.90;;;;;;5018477;28;20481;-76
2024/01/09 05:53:36;;;;;;;33.88;21.40;;;-1.20;99.90;;;;;;5012356;28;20030;-77
2024/01/09 05:56:08;;;;;;;31.50;20.15;;;-1.20;99.90;;;;;;5022707;28;20029;-76
2024/01/09 05:58:35;;;;;;;29.52;19.27;;;-1.10;99.90;;;;;;5017208;28;20053;-76
2024/01/09 06:01:02;;;;;;;31.65;20.40;;;-1.10;99.90;;;;;;5033338;28;20108;-76
2024/01/09 06:03:27;;;;;;;43.55;24.23;;;-1.20;99.90;;;;;;5013274;28;20030;-77
2024/01/09 06:05:53;;;;;;;59.67;32.90;;;-1.20;99.90;;;;;;5012491;28;20022;-78
2024/01/09 06:08:19;;;;;;;54.70;29.60;;;-1.20;99.90;;;;;;5016576;28;20470;-76
2024/01/09 06:10:45;;;;;;;52.15;29.45;;;-1.20;99.90;;;;;;5015349;28;20062;-77
2024/01/09 06:13:12;;;;;;;41.47;24.63;;;-1.30;99.90;;;;;;5014576;28;20026;-76
2024/01/09 06:15:38;;;;;;;39.97;23.77;;;-1.20;99.90;;;;;;5030932;28;20036;-76
2024/01/09 06:18:04;;;;;;;39.00;22.38;;;-1.20;99.90;;;;;;5027812;28;20452;-76
2024/01/09 06:20:30;;;;;;;34.47;21.02;;;-1.30;99.90;;;;;;5014230;28;20026;-77
2024/01/09 06:22:56;;;;;;;38.65;24.65;;;-1.30;99.90;;;;;;5016586;28;20374;-77
2024/01/09 06:25:22;;;;;;;40.25;24.77;;;-1.30;99.90;;;;;;5012946;28;20022;-76
2024/01/09 06:27:48;;;;;;;45.28;26.05;;;-1.30;99.90;;;;;;5013129;28;20076;-76
2024/01/09 06:30:14;;;;;;;40.13;23.52;;;-1.30;99.90;;;;;;5010999;28;20113;-76
2024/01/09 06:32:40;;;;;;;42.20;24.20;;;-1.30;99.90;;;;;;5032706;28;20092;-77
2024/01/09 06:35:06;;;;;;;36.72;22.67;;;-1.30;99.90;;;;;;5018223;28;20017;-77
2024/01/09 06:37:33;;;;;;;35.15;22.17;;;-1.20;99.90;;;;;;5012972;28;20061;-76
2024/01/09 06:39:59;;;;;;;36.67;21.98;;;-1.30;99.90;;;;;;5011730;28;20036;-76
2024/01/09 06:42:24;;;;;;;40.70;23.05;;;-1.20;99.90;;;;;;5013405;28;20049;-76
2024/01/09 06:44:50;;;;;;;42.85;24.65;;;-1.20;99.90;;;;;;5025877;28;20034;-76
2024/01/09 06:47:16;;;;;;;41.78;26.00;;;-1.30;99.90;;;;;;5015563;28;20049;-76
2024/01/09 06:49:42;;;;;;;42.38;27.00;;;-1.20;99.90;;;;;;4998081;28;20444;-76
2024/01/09 06:52:08;;;;;;;46.85;30.23;;;-1.10;99.90;;;;;;5011742;28;20058;-76
2024/01/09 06:54:35;;;;;;;55.05;30.90;;;-1.10;99.90;;;;;;5014919;28;20390;-76
2024/01/09 06:57:01;;;;;;;47.15;29.75;;;-1.00;99.90;;;;;;5017139;28;20093;-76
2024/01/09 06:59:27;;;;;;;54.50;32.22;;;-1.10;99.90;;;;;;5013429;28;20033;-76
2024/01/09 07:01:52;;;;;;;58.08;31.15;;;-0.90;99.90;;;;;;5013422;28;20064;-76
2024/01/09 07:04:18;;;;;;;50.08;30.50;;;-1.00;99.90;;;;;;5014793;28;20382;-76
2024/01/09 07:06:44;;;;;;;39.00;24.50;;;-0.80;99.90;;;;;;5016220;28;20018;-76
2024/01/09 07:09:11;;;;;;;41.63;24.27;;;-0.70;99.90;;;;;;5015001;28;20026;-77
2024/01/09 07:11:37;;;;;;;41.88;25.17;;;-0.80;99.90;;;;;;5015002;28;20075;-76
2024/01/09 07:14:03;;;;;;;50.83;28.00;;;-0.70;99.90;;;;;;5031555;28;20021;-76
2024/01/09 07:16:29;;;;;;;43.67;26.17;;;-0.70;99.90;;;;;;5011260;28;20477;-76
2024/01/09 07:18:55;;;;;;;42.08;24.15;;;-0.70;99.90;;;;;;5014568;28;20049;-76
2024/01/09 07:21:21;;;;;;;34.75;21.45;;;-0.70;99.90;;;;;;5016816;28;20029;-76
2024/01/09 07:23:47;;;;;;;32.95;19.85;;;-0.80;99.90;;;;;;5011533;28;20029;-75
2024/01/09 07:26:13;;;;;;;35.90;20.15;;;-0.80;99.90;;;;;;5015081;28;20433;-76
2024/01/09 07:28:41;;;;;;;40.08;21.75;;;-0.80;99.90;;;;;;5013018;28;20109;-76
2024/01/09 07:31:09;;;;;;;34.63;21.17;;;-0.80;99.90;;;;;;5014128;28;20026;-75
2024/01/09 07:33:35;;;;;;;34.10;18.88;;;-0.80;99.90;;;;;;5017205;28;20492;-75
2024/01/09 07:36:02;;;;;;;30.50;18.80;;;-0.70;99.90;;;;;;5016710;28;20025;-75
2024/01/09 07:38:28;;;;;;;32.78;18.83;;;-0.80;99.90;;;;;;5030579;28;20028;-76
2024/01/09 07:40:54;;;;;;;27.80;16.88;;;-0.80;99.90;;;;;;5021321;28;20426;-76
2024/01/09 07:43:20;;;;;;;26.75;17.23;;;-0.70;99.90;;;;;;5034173;28;20085;-76
2024/01/09 07:45:46;;;;;;;29.00;17.17;;;-0.70;99.90;;;;;;5035191;28;20060;-76
2024/01/09 07:48:13;;;;;;;31.40;18.33;;;-0.60;99.90;;;;;;5035068;28;20021;-76
2024/01/09 07:50:39;;;;;;;31.67;18.63;;;-0.60;99.90;;;;;;5035080;28;20083;-76
2024/01/09 07:53:04;;;;;;;34.25;19.67;;;-0.70;99.90;;;;;;5035267;28;20021;-76
2024/01/09 07:55:30;;;;;;;31.60;18.27;;;-0.60;99.90;;;;;;5034897;28;20017;-75
2024/01/09 07:57:59;;;;;;;27.88;16.95;;;-0.40;99.90;;;;;;5035079;28;20113;-76
2024/01/09 08:00:25;;;;;;;26.15;16.80;;;-0.50;99.90;;;;;;5034832;28;20025;-76
2024/01/09 08:02:51;;;;;;;29.10;17.15;;;-0.30;99.90;;;;;;5028653;28;20028;-75
2024/01/09 08:05:17;;;;;;;30.63;18.00;;;-0.30;99.90;;;;;;5038347;28;20061;-75
2024/01/09 08:07:43;;;;;;;33.05;18.95;;;-0.30;99.90;;;;;;5034045;28;20017;-75
2024/01/09 08:10:09;;;;;;;36.85;19.20;;;-0.20;99.90;;;;;;5042068;28;20028;-76
2024/01/09 08:12:35;;;;;;;34.92;20.98;;;0.00;99.90;;;;;;5019807;28;20043;-76
2024/01/09 08:15:02;;;;;;;31.45;18.50;;;0.00;99.90;;;;;;5034761;28;20030;-75
2024/01/09 08:17:28;;;;;;;31.50;18.60;;;-0.10;99.90;;;;;;5043831;28;20017;-76
2024/01/09 08:19:54;;;;;;;29.92;17.70;;;0.00;99.90;;;;;;5033033;28;20500;-75
2024/01/09 08:22:20;;;;;;;31.30;18.77;;;0.00;99.90;;;;;;5033797;28;20696;-75
2024/01/09 08:24:46;;;;;;;31.40;18.60;;;-0.10;99.90;;;;;;5034168;28;20017;-78
2024/01/09 08:27:12;;;;;;;26.13;16.15;;;-0.10;99.90;;;;;;5033757;28;20121;-75
2024/01/09 08:29:38;;;;;;;28.75;16.95;;;-0.20;99.90;;;;;;5032513;28;20492;-77
2024/01/09 08:32:05;;;;;;;35.50;18.00;;;0.00;99.90;;;;;;5035825;28;20028;-75
2024/01/09 08:34:31;;;;;;;28.48;16.90;;;0.10;99.90;;;;;;5042392;28;20029;-75
2024/01/09 08:36:56;;;;;;;27.00;16.67;;;0.10;99.90;;;;;;5030202;28;20385;-75
2024/01/09 08:39:22;;;;;;;29.63;17.60;;;0.10;99.90;;;;;;5019154;28;20061;-78
2024/01/09 08:41:48;;;;;;;27.55;16.75;;;0.00;99.90;;;;;;5020804;28;20124;-76
2024/01/09 08:44:14;;;;;;;28.90;18.85;;;0.10;99.90;;;;;;5023376;28;20029;-76
2024/01/09 08:46:40;;;;;;;31.40;17.38;;;0.10;99.90;;;;;;5027382;28;20029;-75
2024/01/09 08:49:06;;;;;;;26.02;15.65;;;0.30;99.90;;;;;;5030056;28;20029;-77
2024/01/09 08:51:32;;;;;;;25.45;15.68;;;0.30;99.90;;;;;;5042838;28;20029;-77
2024/01/09 08:53:58;;;;;;;26.92;15.68;;;0.40;99.90;;;;;;5015740;28;20040;-76
2024/01/09 08:56:24;;;;;;;26.13;15.35;;;0.20;99.90;;;;;;5033365;28;20029;-76
2024/01/09 08:58:50;;;;;;;25.33;14.07;;;0.30;99.90;;;;;;5033366;28;20381;-76
2024/01/09 09:01:20;;;;;;;26.33;14.38;;;0.40;99.90;;;;;;5032873;28;20035;-77
2024/01/09 09:03:47;;;;;;;26.58;15.75;;;0.50;99.90;;;;;;5033417;28;20473;-76
2024/01/09 09:06:14;;;;;;;29.33;15.85;;;0.40;99.90;;;;;;5033816;28;20044;-76
2024/01/09 09:08:40;;;;;;;28.98;15.98;;;0.50;99.90;;;;;;5015245;28;20400;-77
2024/01/09 09:11:10;;;;;;;26.90;14.55;;;0.80;99.90;;;;;;5021973;28;20038;-77
2024/01/09 09:13:36;;;;;;;23.42;13.52;;;0.70;99.90;;;;;;5042325;28;20105;-76
2024/01/09 09:16:02;;;;;;;22.70;14.80;;;0.70;99.90;;;;;;5019236;28;20536;-78
2024/01/09 09:18:28;;;;;;;27.95;15.98;;;0.70;99.90;;;;;;5045388;28;20108;-78
2024/01/09 09:20:54;;;;;;;26.42;15.93;;;0.90;99.90;;;;;;5032158;28;20092;-78
2024/01/09 09:23:20;;;;;;;26.67;15.40;;;0.60;99.90;;;;;;5033292;28;20436;-77
2024/01/09 09:25:46;;;;;;;34.92;19.08;;;0.70;99.90;;;;;;5032992;28;20047;-77
2024/01/09 09:28:13;;;;;;;31.70;18.13;;;0.80;99.90;;;;;;5033214;28;20362;-76
2024/01/09 09:30:39;;;;;;;33.10;19.98;;;0.80;99.90;;;;;;5032787;28;20026;-76
2024/01/09 09:33:05;;;;;;;29.90;17.45;;;1.00;99.90;;;;;;5032122;28;20025;-77
2024/01/09 09:35:31;;;;;;;32.70;18.05;;;1.00;99.90;;;;;;5033193;28;20404;-77
2024/01/09 09:37:57;;;;;;;32.47;19.63;;;1.00;99.90;;;;;;5032686;28;20029;-76
2024/01/09 09:40:23;;;;;;;31.30;18.90;;;1.20;99.90;;;;;;5033030;28;20458;-77
2024/01/09 09:42:55;;;;;;;36.72;19.40;;;1.20;99.90;;;;;;5032719;28;20044;-77
2024/01/09 09:45:24;;;;;;;33.72;20.42;;;1.00;99.90;;;;;;5031427;28;20060;-77
2024/01/09 09:47:53;;;;;;;35.90;21.20;;;0.90;99.90;;;;;;5031500;28;20032;-77
2024/01/09 09:50:20;;;;;;;35.88;21.92;;;1.00;99.90;;;;;;5032785;28;20645;-78
2024/01/09 09:52:46;;;;;;;33.63;19.67;;;1.20;99.90;;;;;;5033240;28;20057;-76
2024/01/09 09:55:13;;;;;;;31.92;20.10;;;0.80;99.90;;;;;;5032037;28;20045;-77
2024/01/09 09:57:39;;;;;;;38.25;20.92;;;1.00;99.90;;;;;;5032733;28;20028;-78
2024/01/09 10:00:09;;;;;;;33.92;21.45;;;0.90;99.90;;;;;;5033186;28;20038;-78
2024/01/09 10:02:49;;;;;;;30.30;19.20;;;1.00;99.90;;;;;;5032549;28;20075;-78
2024/01/09 10:05:17;;;;;;;33.63;20.55;;;1.30;99.90;;;;;;5032875;28;20056;-78
2024/01/09 10:07:48;;;;;;;37.95;21.27;;;1.40;99.90;;;;;;5032728;28;20032;-78
2024/01/09 10:10:14;;;;;;;30.92;19.15;;;1.50;99.90;;;;;;5031497;28;20432;-77
2024/01/09 10:12:40;;;;;;;26.83;15.95;;;1.50;99.90;;;;;;5014704;28;20408;-78
2024/01/09 10:15:13;;;;;;;31.42;18.13;;;1.40;99.90;;;;;;5032286;28;20022;-78
2024/01/09 10:17:40;;;;;;;33.47;19.50;;;1.60;99.90;;;;;;5032588;28;20261;-79
2024/01/09 10:20:11;;;;;;;30.10;18.15;;;1.60;99.90;;;;;;5032216;28;20029;-79
2024/01/09 10:22:38;;;;;;;35.33;20.75;;;1.60;99.90;;;;;;5031392;28;20036;-78
2024/01/09 10:25:09;;;;;;;33.00;19.10;;;1.50;99.90;;;;;;5019150;28;20112;-78
2024/01/09 10:27:37;;;;;;;30.10;17.10;;;1.20;99.90;;;;;;5032127;28;20032;-77
2024/01/09 10:30:07;;;;;;;27.00;15.60;;;1.20;99.90;;;;;;5014715;28;20488;-78
2024/01/09 10:32:34;;;;;;;26.38;16.45;;;1.40;99.90;;;;;;5031709;28;20025;-77
2024/01/09 10:35:03;;;;;;;28.58;16.83;;;1.20;99.90;;;;;;5032095;28;20506;-78
2024/01/09 10:37:30;;;;;;;29.25;18.08;;;1.30;99.90;;;;;;5030677;28;20057;-78
2024/01/09 10:39:57;;;;;;;30.20;18.17;;;1.40;99.90;;;;;;5032375;28;20031;-78
2024/01/09 10:42:23;;;;;;;34.63;20.08;;;1.50;99.90;;;;;;5031463;28;20057;-78
2024/01/09 10:44:49;;;;;;;31.48;19.13;;;1.60;99.90;;;;;;5032157;28;20037;-78
2024/01/09 10:47:17;;;;;;;31.60;19.85;;;1.60;99.90;;;;;;5031804;28;20021;-78
2024/01/09 10:49:45;;;;;;;31.58;18.48;;;1.60;99.90;;;;;;5031927;28;20120;-78
2024/01/09 10:52:15;;;;;;;28.27;17.25;;;1.40;99.90;;;;;;5031730;28;20034;-79
2024/01/09 10:54:44;;;;;;;29.13;18.15;;;1.40;99.90;;;;;;5031724;28;20032;-78
2024/01/09 10:57:16;;;;;;;24.17;13.82;;;1.50;99.90;;;;;;5031914;28;20100;-77
2024/01/09 10:59:44;;;;;;;29.67;15.05;;;0.90;99.90;;;;;;5014053;28;20477;-78
2024/01/09 11:02:21;;;;;;;39.00;23.50;;;1.00;99.90;;;;;;5031855;28;20477;-77
2024/01/09 11:04:48;;;;;;;31.50;19.38;;;1.10;99.90;;;;;;5031805;28;20076;-78
2024/01/09 11:07:15;;;;;;;32.08;18.95;;;1.20;99.90;;;;;;5035591;28;20523;-77
2024/01/09 11:09:46;;;;;;;37.60;24.65;;;1.10;99.90;;;;;;5035612;28;20076;-78
2024/01/09 11:12:28;;;;;;;37.67;22.23;;;1.10;99.90;;;;;;5035713;28;20040;-78
2024/01/09 11:15:03;;;;;;;51.88;31.75;;;1.30;99.90;;;;;;5034212;28;20426;-78
2024/01/09 11:17:31;;;;;;;39.88;23.10;;;1.30;99.90;;;;;;5035636;28;20030;-78
2024/01/09 11:19:57;;;;;;;34.53;21.00;;;1.30;99.90;;;;;;5035464;28;20045;-78
2024/01/09 11:22:23;;;;;;;30.13;19.30;;;1.30;99.90;;;;;;5034630;28;20052;-78
2024/01/09 11:24:57;;;;;;;34.60;21.42;;;1.10;99.90;;;;;;5035339;28;20557;-78
2024/01/09 11:27:23;;;;;;;33.13;21.15;;;1.10;99.90;;;;;;5035445;28;20509;-77
2024/01/09 11:29:51;;;;;;;29.63;20.52;;;1.00;99.90;;;;;;5035459;28;20029;-77
2024/01/09 11:32:18;;;;;;;28.38;16.42;;;1.10;99.90;;;;;;5035192;28;20029;-78
2024/01/09 11:34:46;;;;;;;29.55;18.02;;;0.80;99.90;;;;;;5035782;28;20025;-78
2024/01/09 11:37:20;;;;;;;28.05;16.20;;;0.70;99.90;;;;;;5035446;28;20055;-78
2024/01/09 11:39:46;;;;;;;26.35;16.65;;;0.90;99.90;;;;;;5035705;28;20029;-76
2024/01/09 11:42:12;;;;;;;33.00;18.83;;;0.80;99.90;;;;;;5034675;28;20057;-78
2024/01/09 11:44:39;;;;;;;26.40;16.70;;;1.10;99.90;;;;;;5035388;28;20025;-77
2024/01/09 11:47:05;;;;;;;27.92;15.10;;;1.10;99.90;;;;;;5033382;28;20121;-78
2024/01/09 11:49:31;;;;;;;25.55;15.27;;;0.60;99.90;;;;;;5034892;28;20030;-78
2024/01/09 11:51:57;;;;;;;25.92;15.88;;;0.60;99.90;;;;;;5035329;28;20029;-78
2024/01/09 11:54:23;;;;;;;26.58;15.32;;;0.90;99.90;;;;;;5034923;28;20024;-77
2024/01/09 11:56:50;;;;;;;31.33;18.85;;;1.10;99.90;;;;;;5035289;28;20102;-77
2024/01/09 11:59:19;;;;;;;34.08;18.35;;;0.90;99.90;;;;;;5035089;28;20040;-77
2024/01/09 12:01:46;;;;;;;29.65;17.45;;;1.00;99.90;;;;;;5034998;28;20025;-77
2024/01/09 12:04:13;;;;;;;32.38;20.60;;;1.10;99.90;;;;;;5035047;28;20421;-77
2024/01/09 12:06:42;;;;;;;42.97;24.95;;;1.10;99.90;;;;;;5034858;28;20512;-77
2024/01/09 12:09:11;;;;;;;29.98;16.95;;;0.50;99.90;;;;;;5034770;28;20044;-78
2024/01/09 12:11:37;;;;;;;24.95;15.65;;;0.70;99.90;;;;;;5034470;28;20037;-77
2024/01/09 12:14:05;;;;;;;29.85;16.50;;;0.80;99.90;;;;;;5034829;28;20048;-77
2024/01/09 12:16:31;;;;;;;29.75;15.93;;;0.80;99.90;;;;;;5034585;28;20104;-76
2024/01/09 12:18:58;;;;;;;26.10;15.75;;;0.50;99.90;;;;;;5034021;28;20029;-77
2024/01/09 12:21:32;;;;;;;29.40;16.23;;;0.60;99.90;;;;;;5034473;28;20037;-77
2024/01/09 12:24:00;;;;;;;35.67;18.98;;;0.50;99.90;;;;;;5034713;28;20440;-77
2024/01/09 12:26:28;;;;;;;34.63;19.48;;;0.70;99.90;;;;;;5034366;28;20049;-77
2024/01/09 12:28:55;;;;;;;28.77;17.73;;;0.70;99.90;;;;;;5016928;28;20037;-77